Time;durP1;ratioP1;P1;durP2;ratioP2;P2;SDS_P1;SDS_P2;PMS_P1;PMS_P2;Temp;Humidity;BMP_temperature;BMP_pressure;BME280_temperature;BME280_humidity;BME280_pressure;Samples;Min_cycle;Max_cycle;Signal;HPM_P1;HPM_P2
2022/06/21 00:01:08;;;;;;;;;;;;;;;21.64;30.24;97317.94;4996595;28;1001;-79
2022/06/21 00:03:34;;;;;;;;;;;;;;;21.72;30.05;97322.09;4996643;28;1020;-79
2022/06/21 00:05:59;;;;;;;;;;;;;;;21.35;30.83;97317.41;4996489;28;985;-78
2022/06/21 00:08:26;;;;;;;;;;;;;;;21.27;30.57;97317.66;4996667;28;969;-79
2022/06/21 00:10:51;;;;;;;;;;;;;;;21.42;30.33;97328.50;4996827;28;975;-79
2022/06/21 00:13:37;;;;;;;;;;;;;;;21.30;30.40;97316.78;4996761;28;1013;-79
2022/06/21 00:16:03;;;;;;;;;;;;;;;21.14;30.59;97319.75;4996138;28;1906;-78
2022/06/21 00:18:29;;;;;;;;;;;;;;;21.20;30.55;97317.94;4996682;28;988;-79
2022/06/21 00:20:55;;;;;;;;;;;;;;;21.25;30.51;97314.50;4976645;28;957;-79
2022/06/21 00:23:21;;;;;;;;;;;;;;;21.22;30.54;97315.41;4961235;28;1050;-79
2022/06/21 00:25:47;;;;;;;;;;;;;;;21.10;30.84;97318.31;4948331;28;994;-78
2022/06/21 00:28:13;;;;;;;;;;;;;;;21.31;30.19;97318.34;4996059;28;924;-78
2022/06/21 00:30:39;;;;;;;;;;;;;;;21.50;30.59;97312.81;4996339;28;1037;-78
2022/06/21 00:33:05;;;;;;;;;;;;;;;21.70;30.34;97303.97;4979768;28;1039;-78
2022/06/21 00:35:30;;;;;;;;;;;;;;;21.81;30.24;97305.19;4996021;28;1969;-79
2022/06/21 00:37:56;;;;;;;;;;;;;;;21.43;30.56;97310.25;4995934;28;932;-78
2022/06/21 00:40:25;;;;;;;;;;;;;;;21.44;30.42;97300.50;4996283;28;983;-79
2022/06/21 00:42:55;;;;;;;;;;;;;;;21.36;30.60;97296.38;4996075;28;1050;-78
2022/06/21 00:45:26;;;;;;;;;;;;;;;21.31;30.82;97292.88;4996298;28;1092;-79
2022/06/21 00:47:52;;;;;;;;;;;;;;;21.31;30.35;97298.53;4995757;28;984;-78
2022/06/21 00:50:26;;;;;;;;;;;;;;;21.41;30.54;97287.31;4979060;28;975;-79
2022/06/21 00:53:07;;;;;;;;;;;;;;;21.29;30.38;97281.19;5032992;28;993;-78
2022/06/21 00:55:32;;;;;;;;;;;;;;;21.22;30.45;97286.34;5037215;28;1906;-78
2022/06/21 00:57:58;;;;;;;;;;;;;;;21.27;30.69;97274.44;5037180;28;919;-78
2022/06/21 01:00:25;;;;;;;;;;;;;;;21.11;30.89;97275.41;5037154;28;970;-79
2022/06/21 01:02:50;;;;;;;;;;;;;;;21.20;30.45;97281.16;5037048;28;979;-79
2022/06/21 01:05:16;;;;;;;;;;;;;;;21.33;30.18;97264.13;5036026;28;991;-79
2022/06/21 01:07:41;;;;;;;;;;;;;;;21.27;30.39;97272.38;5036837;28;948;-78
2022/06/21 01:10:12;;;;;;;;;;;;;;;21.27;30.25;97269.56;5037291;28;936;-79
2022/06/21 01:12:40;;;;;;;;;;;;;;;21.21;30.75;97268.56;5036217;28;1002;-79
2022/06/21 01:15:06;;;;;;;;;;;;;;;21.21;30.54;97262.13;5037156;28;878;-79
2022/06/21 01:17:32;;;;;;;;;;;;;;;21.22;30.39;97269.34;5002090;28;1899;-79
2022/06/21 01:19:59;;;;;;;;;;;;;;;21.52;30.65;97260.16;5035501;28;1281;-79
2022/06/21 01:22:24;;;;;;;;;;;;;;;21.77;30.32;97264.88;5035705;28;900;-79
2022/06/21 01:24:55;;;;;;;;;;;;;;;21.91;30.44;97274.84;5036711;28;1001;-78
2022/06/21 01:27:20;;;;;;;;;;;;;;;22.01;30.13;97272.84;5035801;28;974;-78
2022/06/21 01:29:46;;;;;;;;;;;;;;;21.72;30.32;97267.53;5036957;28;1081;-79
2022/06/21 01:32:11;;;;;;;;;;;;;;;21.52;30.63;97274.31;5036603;28;1137;-78
2022/06/21 01:34:37;;;;;;;;;;;;;;;21.49;30.58;97277.28;5018088;28;1057;-79
2022/06/21 01:37:07;;;;;;;;;;;;;;;21.51;30.53;97277.63;5036549;28;1983;-78
2022/06/21 01:39:38;;;;;;;;;;;;;;;21.30;30.81;97277.16;5036735;28;933;-78
2022/06/21 01:42:09;;;;;;;;;;;;;;;21.30;31.04;97270.72;5036315;28;991;-78
2022/06/21 01:44:35;;;;;;;;;;;;;;;21.26;30.76;97284.97;5035153;28;940;-78
2022/06/21 01:47:01;;;;;;;;;;;;;;;21.28;30.82;97273.97;5035570;28;910;-78
2022/06/21 01:49:27;;;;;;;;;;;;;;;21.19;30.93;97281.59;5035033;28;1119;-79
2022/06/21 01:51:54;;;;;;;;;;;;;;;21.28;30.54;97276.00;5035234;28;907;-79
2022/06/21 01:54:21;;;;;;;;;;;;;;;21.25;30.69;97277.72;5035279;28;921;-78
2022/06/21 01:56:46;;;;;;;;;;;;;;;21.26;30.56;97270.81;5036106;28;1898;-77
2022/06/21 01:59:17;;;;;;;;;;;;;;;21.33;30.53;97279.06;5036352;28;976;-79
2022/06/21 02:01:42;;;;;;;;;;;;;;;21.17;30.63;97279.22;5034646;28;911;-78
2022/06/21 02:04:08;;;;;;;;;;;;;;;21.25;30.47;97286.22;5035907;28;911;-78
2022/06/21 02:10:07;;;;;;;;;;;;;;;21.05;30.95;97288.56;5035960;28;1037;-78
2022/06/21 02:12:33;;;;;;;;;;;;;;;21.16;30.75;97288.97;5034769;28;976;-78
2022/06/21 02:14:58;;;;;;;;;;;;;;;21.24;30.60;97278.97;5035245;28;954;-78
2022/06/21 02:17:24;;;;;;;;;;;;;;;21.58;31.12;97271.69;5034909;28;1981;-79
2022/06/21 02:19:52;;;;;;;;;;;;;;;21.82;30.39;97278.44;5036142;28;899;-79
2022/06/21 02:22:21;;;;;;;;;;;;;;;21.81;30.24;97271.19;5034927;28;919;-79
2022/06/21 02:24:47;;;;;;;;;;;;;;;21.56;30.44;97274.19;5034668;28;874;-79
2022/06/21 02:27:13;;;;;;;;;;;;;;;21.44;30.39;97263.72;5034660;28;955;-78
2022/06/21 02:29:38;;;;;;;;;;;;;;;21.32;30.42;97273.88;5034907;28;993;-78
2022/06/21 02:32:04;;;;;;;;;;;;;;;21.35;30.38;97278.63;5034569;28;1014;-79
2022/06/21 02:34:34;;;;;;;;;;;;;;;21.45;30.33;97270.94;5034470;28;1014;-78
2022/06/21 02:37:00;;;;;;;;;;;;;;;21.32;30.44;97269.00;5034795;28;1973;-78
2022/06/21 02:39:26;;;;;;;;;;;;;;;21.33;30.26;97270.56;5034368;28;946;-79
2022/06/21 02:41:56;;;;;;;;;;;;;;;21.23;30.52;97276.59;4994064;28;1008;-79
2022/06/21 02:44:25;;;;;;;;;;;;;;;21.16;30.53;97276.88;4994038;28;995;-78
2022/06/21 02:46:55;;;;;;;;;;;;;;;21.12;30.59;97270.53;4994399;28;959;-79
2022/06/21 02:52:38;;;;;;;;;;;;;;;21.37;30.19;97256.28;4993913;28;984;-79
2022/06/21 02:55:22;;;;;;;;;;;;;;;21.17;30.45;97253.75;4994370;28;954;-79
2022/06/21 02:58:06;;;;;;;;;;;;;;;21.49;30.66;97243.31;4977565;28;1906;-78
2022/06/21 03:00:31;;;;;;;;;;;;;;;21.92;29.79;97241.66;4993932;28;969;-79
2022/06/21 03:03:00;;;;;;;;;;;;;;;21.55;30.28;97247.13;4994405;28;1016;-79
2022/06/21 03:05:26;;;;;;;;;;;;;;;21.45;30.25;97242.66;4993950;28;974;-80
2022/06/21 03:07:53;;;;;;;;;;;;;;;21.42;30.40;97244.38;4993618;28;1068;-79
2022/06/21 03:10:23;;;;;;;;;;;;;;;21.39;30.05;97244.50;4974671;28;961;-79
2022/06/21 03:12:50;;;;;;;;;;;;;;;21.41;29.92;97239.19;4944917;29;1161;-78
2022/06/21 03:15:15;;;;;;;;;;;;;;;21.56;29.73;97243.06;4941804;29;1020;-79
2022/06/21 03:17:41;;;;;;;;;;;;;;;21.43;30.00;97242.34;4942445;29;1918;-79
2022/06/21 03:20:09;;;;;;;;;;;;;;;21.41;30.08;97236.34;4958655;29;996;-79
2022/06/21 03:22:35;;;;;;;;;;;;;;;21.27;30.48;97238.44;4920448;29;980;-79
2022/06/21 03:25:03;;;;;;;;;;;;;;;21.51;30.03;97246.47;4920237;29;1053;-78
2022/06/21 03:27:31;;;;;;;;;;;;;;;21.44;30.37;97246.75;4920257;29;995;-79
2022/06/21 03:29:56;;;;;;;;;;;;;;;21.28;30.67;97245.66;4920242;29;953;-79
2022/06/21 03:32:22;;;;;;;;;;;;;;;21.32;30.72;97252.00;4920462;29;1010;-79
2022/06/21 03:34:47;;;;;;;;;;;;;;;21.31;30.24;97247.63;4920206;29;1339;-78
2022/06/21 03:37:13;;;;;;;;;;;;;;;21.33;30.60;97253.59;4919848;29;1907;-80
2022/06/21 03:42:24;;;;;;;;;;;;;;;21.36;30.42;97245.44;4956314;29;1086;-78
2022/06/21 03:44:51;;;;;;;;;;;;;;;21.34;30.29;97237.41;4997405;28;1130;-79
2022/06/21 03:47:20;;;;;;;;;;;;;;;21.22;30.69;97239.03;4996767;28;1083;-79
2022/06/21 03:50:00;;;;;;;;;;;;;;;21.38;30.37;97242.94;4980757;28;999;-79
2022/06/21 03:52:43;;;;;;;;;;;;;;;21.33;30.31;97230.16;4997259;28;965;-79
2022/06/21 03:55:15;;;;;;;;;;;;;;;21.70;30.57;97242.47;5016342;28;991;-79
2022/06/21 03:57:42;;;;;;;;;;;;;;;21.93;30.18;97231.91;5016747;28;1913;-79
2022/06/21 04:00:09;;;;;;;;;;;;;;;21.96;30.16;97236.63;4999799;28;980;-79
2022/06/21 04:02:37;;;;;;;;;;;;;;;21.71;30.10;97223.44;5016295;28;790;-79
2022/06/21 04:05:04;;;;;;;;;;;;;;;21.44;30.71;97212.78;5016279;28;751;-79
2022/06/21 04:07:33;;;;;;;;;;;;;;;21.45;30.67;97220.00;5016382;28;946;-79
2022/06/21 04:10:04;;;;;;;;;;;;;;;21.37;30.54;97221.53;4999896;28;787;-79
2022/06/21 04:12:42;;;;;;;;;;;;;;;21.44;30.37;97218.44;5015970;28;870;-79
2022/06/21 04:15:09;;;;;;;;;;;;;;;21.41;30.35;97225.03;5015863;28;858;-79
2022/06/21 04:17:55;;;;;;;;;;;;;;;21.40;30.29;97229.09;4972856;28;1939;-79
2022/06/21 04:20:28;;;;;;;;;;;;;;;21.36;30.46;97225.63;5037714;28;1056;-79
2022/06/21 04:22:54;;;;;;;;;;;;;;;21.16;30.98;97226.72;5037801;28;935;-79
2022/06/21 04:25:28;;;;;;;;;;;;;;;21.29;31.10;97224.59;5037066;28;979;-80
2022/06/21 04:27:58;;;;;;;;;;;;;;;21.28;30.86;97223.03;5037743;28;942;-79
2022/06/21 04:30:25;;;;;;;;;;;;;;;21.30;30.56;97231.88;4957351;29;1039;-77
2022/06/21 04:32:54;;;;;;;;;;;;;;;21.42;30.58;97230.22;4941281;29;1171;-77
2022/06/21 04:35:21;;;;;;;;;;;;;;;21.37;30.66;97224.38;4918904;29;1213;-77
2022/06/21 04:37:51;;;;;;;;;;;;;;;21.40;30.36;97229.09;4903375;29;1907;-76
2022/06/21 04:40:34;;;;;;;;;;;;;;;21.39;30.54;97222.66;4903375;29;1045;-76
2022/06/21 04:43:05;;;;;;;;;;;;;;;21.33;30.64;97225.28;4918990;29;934;-76
2022/06/21 04:45:36;;;;;;;;;;;;;;;21.31;30.71;97222.16;4862506;29;1149;-77
2022/06/21 04:48:08;;;;;;;;;;;;;;;21.33;30.38;97225.28;4862585;29;929;-76
2022/06/21 04:50:39;;;;;;;;;;;;;;;21.29;30.52;97229.47;4847134;29;1166;-76
2022/06/21 04:53:28;;;;;;;;;;;;;;;21.36;30.39;97239.78;4847570;29;957;-76
2022/06/21 04:56:11;;;;;;;;;;;;;;;21.28;30.68;97239.22;4843662;29;1911;-76
2022/06/21 04:58:37;;;;;;;;;;;;;;;21.33;30.40;97230.94;4844187;29;1005;-76
2022/06/21 05:01:29;;;;;;;;;;;;;;;21.32;30.32;97223.72;4877477;29;965;-76
2022/06/21 05:03:48;;;;;;;;;;;;;;;21.25;30.54;97223.97;4924255;29;1012;-77
2022/06/21 05:06:14;;;;;;;;;;;;;;;21.15;31.02;97235.69;4892603;29;997;-76
2022/06/21 05:08:39;;;;;;;;;;;;;;;21.27;30.84;97226.31;4918394;29;994;-76
2022/06/21 05:11:05;;;;;;;;;;;;;;;21.25;30.71;97229.63;4902667;29;1006;-77
2022/06/21 05:13:37;;;;;;;;;;;;;;;21.28;30.55;97223.03;4862051;29;974;-76
2022/06/21 05:16:04;;;;;;;;;;;;;;;21.13;31.08;97227.63;4864060;29;1976;-76
2022/06/21 05:18:36;;;;;;;;;;;;;;;21.29;30.53;97224.59;4918507;29;1018;-77
2022/06/21 05:21:03;;;;;;;;;;;;;;;21.57;30.62;97224.81;4902440;29;1338;-76
2022/06/21 05:23:28;;;;;;;;;;;;;;;21.77;31.21;97218.78;4880221;29;1154;-76
2022/06/21 05:25:54;;;;;;;;;;;;;;;21.99;31.02;97225.16;4865032;29;1077;-76
2022/06/21 05:28:37;;;;;;;;;;;;;;;21.73;30.92;97216.09;4880115;29;1094;-76
2022/06/21 05:31:07;;;;;;;;;;;;;;;21.59;31.12;97213.81;4880442;29;964;-76
2022/06/21 05:33:36;;;;;;;;;;;;;;;21.32;31.63;97209.56;4880277;29;1037;-76
2022/06/21 05:36:01;;;;;;;;;;;;;;;21.57;30.95;97210.66;4880317;29;1974;-76
2022/06/21 05:38:27;;;;;;;;;;;;;;;21.44;31.09;97204.28;4879947;29;949;-76
2022/06/21 05:41:02;;;;;;;;;;;;;;;21.44;31.21;97204.28;4880310;29;912;-77
2022/06/21 05:43:30;;;;;;;;;;;;;;;21.29;31.38;97199.13;4890460;29;1001;-76
2022/06/21 05:45:56;;;;;;;;;;;;;;;21.38;30.93;97203.31;4937048;29;937;-76
2022/06/21 05:48:23;;;;;;;;;;;;;;;21.50;30.68;97199.59;4902053;29;1029;-76
2022/06/21 05:50:48;;;;;;;;;;;;;;;21.27;31.34;97198.03;4933434;29;947;-76
2022/06/21 05:53:22;;;;;;;;;;;;;;;21.33;31.07;97199.81;4917412;29;938;-76
2022/06/21 05:55:48;;;;;;;;;;;;;;;21.53;30.70;97193.03;4898576;29;1911;-76
2022/06/21 05:58:21;;;;;;;;;;;;;;;21.59;30.44;97196.81;4899855;29;1039;-76
2022/06/21 06:01:00;;;;;;;;;;;;;;;21.42;30.91;97198.31;4917806;29;1074;-77
2022/06/21 06:03:33;;;;;;;;;;;;;;;21.30;31.00;97195.09;4869756;29;1007;-76
2022/06/21 06:06:04;;;;;;;;;;;;;;;21.39;30.98;97196.41;4876808;29;1030;-76
2022/06/21 06:08:31;;;;;;;;;;;;;;;21.37;30.80;97184.75;4861632;29;957;-77
2022/06/21 06:10:58;;;;;;;;;;;;;;;21.50;30.66;97194.75;4876820;29;989;-76
2022/06/21 06:13:25;;;;;;;;;;;;;;;21.41;30.81;97196.75;4861517;29;1049;-76
2022/06/21 06:15:54;;;;;;;;;;;;;;;21.33;31.05;97202.66;4879858;29;1915;-76
2022/06/21 06:18:30;;;;;;;;;;;;;;;21.45;30.71;97201.00;4880863;29;989;-77
2022/06/21 06:21:01;;;;;;;;;;;;;;;21.34;31.09;97194.94;4879832;29;956;-76
2022/06/21 06:23:32;;;;;;;;;;;;;;;21.40;30.81;97183.81;4883198;29;988;-76
2022/06/21 06:26:05;;;;;;;;;;;;;;;21.42;30.82;97192.66;4901243;29;984;-76
2022/06/21 06:28:30;;;;;;;;;;;;;;;21.43;30.75;97188.56;4917125;29;951;-76
2022/06/21 06:31:04;;;;;;;;;;;;;;;21.49;30.58;97181.03;4917399;29;952;-77
2022/06/21 06:33:37;;;;;;;;;;;;;;;21.42;30.88;97190.59;4921554;29;931;-76
2022/06/21 06:36:07;;;;;;;;;;;;;;;21.31;31.41;97182.53;4939317;29;1911;-76
2022/06/21 06:38:33;;;;;;;;;;;;;;;21.67;30.65;97177.53;4897959;29;1054;-77
2022/06/21 06:41:10;;;;;;;;;;;;;;;21.59;30.94;97196.81;4898184;29;973;-77
2022/06/21 06:43:37;;;;;;;;;;;;;;;21.41;30.99;97186.22;4898330;29;989;-75
2022/06/21 06:46:02;;;;;;;;;;;;;;;21.47;31.02;97194.88;4901250;29;1195;-76
2022/06/21 06:48:31;;;;;;;;;;;;;;;21.45;31.02;97186.03;4919730;29;998;-76
2022/06/21 06:51:02;;;;;;;;;;;;;;;21.57;30.76;97193.69;4945251;28;1030;-76
2022/06/21 06:53:30;;;;;;;;;;;;;;;21.61;30.79;97188.66;4981573;28;1012;-76
2022/06/21 06:55:58;;;;;;;;;;;;;;;21.64;30.89;97196.22;4998062;28;1899;-76
2022/06/21 06:58:24;;;;;;;;;;;;;;;21.52;30.70;97209.22;4998006;28;988;-76
2022/06/21 07:00:57;;;;;;;;;;;;;;;21.44;31.15;97207.91;4981893;28;979;-76
2022/06/21 07:03:26;;;;;;;;;;;;;;;21.46;31.00;97199.75;4997638;28;993;-76
2022/06/21 07:05:52;;;;;;;;;;;;;;;21.34;31.28;97203.44;4981414;28;966;-76
2022/06/21 07:08:21;;;;;;;;;;;;;;;21.45;31.07;97194.53;4981515;28;1363;-75
2022/06/21 07:10:47;;;;;;;;;;;;;;;21.53;30.82;97199.47;5039562;28;963;-76
2022/06/21 07:13:12;;;;;;;;;;;;;;;21.56;30.99;97197.75;5037922;28;922;-76
2022/06/21 07:15:39;;;;;;;;;;;;;;;21.58;30.72;97201.69;5038211;28;935;-76
2022/06/21 07:18:04;;;;;;;;;;;;;;;21.72;30.51;97194.69;4997474;28;1915;-76
2022/06/21 07:20:40;;;;;;;;;;;;;;;21.65;30.80;97206.28;4981135;28;938;-76
2022/06/21 07:23:11;;;;;;;;;;;;;;;21.59;30.79;97194.00;4997591;28;936;-76
2022/06/21 07:25:47;;;;;;;;;;;;;;;21.52;31.20;97191.44;4997380;28;1001;-76
2022/06/21 07:28:15;;;;;;;;;;;;;;;21.48;30.93;97196.44;4997120;28;1029;-76
2022/06/21 07:30:42;;;;;;;;;;;;;;;21.43;31.15;97199.88;4997096;28;1161;-76
2022/06/21 07:33:12;;;;;;;;;;;;;;;21.45;30.97;97203.03;4997435;28;965;-76
2022/06/21 07:35:43;;;;;;;;;;;;;;;21.61;30.74;97205.66;4957877;29;1847;-76
2022/06/21 07:38:10;;;;;;;;;;;;;;;21.54;30.94;97205.91;4942794;29;1039;-77
2022/06/21 07:40:41;;;;;;;;;;;;;;;21.46;30.97;97198.97;4942453;29;916;-77
2022/06/21 07:43:32;;;;;;;;;;;;;;;21.54;30.97;97217.22;4958095;29;1012;-76
2022/06/21 07:45:59;;;;;;;;;;;;;;;21.61;31.10;97211.31;4955297;29;979;-76
2022/06/21 07:48:24;;;;;;;;;;;;;;;21.48;31.20;97213.44;4955809;28;1051;-76
2022/06/21 07:50:51;;;;;;;;;;;;;;;21.54;30.91;97200.25;4977063;28;920;-76
2022/06/21 07:53:19;;;;;;;;;;;;;;;21.64;30.88;97204.72;4961144;28;1045;-77
2022/06/21 07:55:47;;;;;;;;;;;;;;;21.63;30.84;97208.00;4977441;28;1977;-77
2022/06/21 07:58:14;;;;;;;;;;;;;;;21.57;31.17;97217.09;4961519;28;1011;-77
2022/06/21 08:09:18;;;;;;;;;;;;;;;21.57;31.02;97202.16;4925274;29;979;-77
2022/06/21 08:11:44;;;;;;;;;;;;;;;21.73;30.77;97203.97;4829591;29;1511;-77
2022/06/21 08:14:09;;;;;;;;;;;;;;;21.65;30.88;97200.63;4829606;29;1082;-77
2022/06/21 08:16:53;;;;;;;;;;;;;;;21.62;31.21;97210.06;4808080;29;1903;-77
2022/06/21 08:19:36;;;;;;;;;;;;;;;21.58;30.99;97212.22;4808780;29;1084;-77
2022/06/21 08:22:09;;;;;;;;;;;;;;;21.57;31.02;97202.94;4793294;29;984;-77
2022/06/21 08:24:52;;;;;;;;;;;;;;;21.61;31.01;97202.81;4808130;29;971;-78
2022/06/21 08:27:17;;;;;;;;;;;;;;;21.59;31.18;97196.81;4813093;29;965;-77
2022/06/21 08:29:54;;;;;;;;;;;;;;;21.55;31.16;97190.50;4862931;29;1114;-78
2022/06/21 08:32:22;;;;;;;;;;;;;;;21.49;31.26;97192.38;4863195;29;1003;-78
2022/06/21 08:34:48;;;;;;;;;;;;;;;21.61;31.02;97194.31;4844146;29;1343;-78
2022/06/21 08:37:20;;;;;;;;;;;;;;;21.49;31.20;97186.69;4832344;29;1970;-78
2022/06/21 08:39:47;;;;;;;;;;;;;;;21.75;30.91;97182.41;4843983;29;1151;-77
2022/06/21 08:42:15;;;;;;;;;;;;;;;21.60;30.94;97187.06;4844337;29;998;-77
2022/06/21 08:44:44;;;;;;;;;;;;;;;21.83;30.58;97195.03;4844298;29;1063;-77
2022/06/21 08:47:15;;;;;;;;;;;;;;;21.69;31.06;97181.44;4856139;29;991;-77
2022/06/21 08:49:45;;;;;;;;;;;;;;;21.74;31.03;97185.72;4901889;29;1005;-78
2022/06/21 08:52:13;;;;;;;;;;;;;;;21.70;31.03;97182.25;4899953;29;1038;-78
2022/06/21 08:54:54;;;;;;;;;;;;;;;21.61;31.41;97171.69;4900036;29;985;-78
2022/06/21 08:57:38;;;;;;;;;;;;;;;21.54;31.10;97183.25;4899577;29;1978;-78
2022/06/21 09:00:22;;;;;;;;;;;;;;;21.61;30.91;97174.50;4880703;29;987;-78
2022/06/21 09:02:55;;;;;;;;;;;;;;;21.66;31.09;97184.41;4881150;29;1087;-78
2022/06/21 09:05:29;;;;;;;;;;;;;;;21.64;31.29;97176.41;4880795;29;1043;-78
2022/06/21 09:08:10;;;;;;;;;;;;;;;21.64;31.15;97175.59;4919848;29;933;-78
2022/06/21 09:10:39;;;;;;;;;;;;;;;21.63;31.21;97174.03;4956569;29;1208;-77
2022/06/21 09:13:23;;;;;;;;;;;;;;;21.66;31.38;97179.56;4988396;28;1049;-78
2022/06/21 09:15:53;;;;;;;;;;;;;;;21.56;31.37;97175.91;4978966;28;1914;-78
2022/06/21 09:18:37;;;;;;;;;;;;;;;21.57;31.54;97176.69;4975454;28;994;-78
2022/06/21 09:21:09;;;;;;;;;;;;;;;21.58;31.76;97183.94;4975819;28;999;-77
2022/06/21 09:23:37;;;;;;;;;;;;;;;21.62;31.75;97172.47;4975806;28;966;-78
2022/06/21 09:26:21;;;;;;;;;;;;;;;21.64;31.77;97172.78;4975564;28;1017;-78
2022/06/21 09:28:55;;;;;;;;;;;;;;;21.66;31.40;97185.22;4975402;28;933;-78
2022/06/21 09:31:23;;;;;;;;;;;;;;;21.64;31.53;97175.59;4975268;28;985;-77
2022/06/21 09:33:49;;;;;;;;;;;;;;;21.79;31.10;97183.06;4959628;28;924;-78
2022/06/21 09:36:20;;;;;;;;;;;;;;;21.73;31.38;97172.81;4936918;29;1911;-77
2022/06/21 09:38:49;;;;;;;;;;;;;;;21.77;31.25;97179.94;4945202;29;1002;-78
2022/06/21 09:41:14;;;;;;;;;;;;;;;21.68;31.38;97177.06;4917901;29;1037;-78
2022/06/21 09:43:46;;;;;;;;;;;;;;;21.64;31.49;97176.41;4917745;29;1023;-78
2022/06/21 09:46:18;;;;;;;;;;;;;;;21.69;31.38;97170.13;4918483;29;1034;-77
2022/06/21 09:49:03;;;;;;;;;;;;;;;21.86;31.14;97165.00;4922958;29;1017;-78
2022/06/21 09:51:28;;;;;;;;;;;;;;;21.69;31.46;97170.13;4936647;29;977;-77
2022/06/21 09:54:09;;;;;;;;;;;;;;;21.74;31.38;97160.25;4937076;29;1128;-78
2022/06/21 09:56:49;;;;;;;;;;;;;;;21.68;31.66;97160.06;4936375;29;2015;-77
2022/06/21 09:59:20;;;;;;;;;;;;;;;21.81;31.62;97157.09;4936914;29;928;-77
2022/06/21 10:01:45;;;;;;;;;;;;;;;21.75;31.47;97162.59;4917721;29;972;-77
2022/06/21 10:04:30;;;;;;;;;;;;;;;21.69;31.46;97167.28;4918251;29;959;-78
2022/06/21 10:07:00;;;;;;;;;;;;;;;21.66;31.64;97150.44;4901692;29;959;-77
2022/06/21 10:09:47;;;;;;;;;;;;;;;21.58;31.74;97153.56;4901997;29;927;-78
2022/06/21 10:12:13;;;;;;;;;;;;;;;21.74;31.54;97146.88;4888630;29;1105;-78
2022/06/21 10:14:47;;;;;;;;;;;;;;;21.59;31.76;97157.19;4968058;28;2323;-78
2022/06/21 10:17:15;;;;;;;;;;;;;;;21.56;32.06;97153.25;4974787;28;1907;-78
2022/06/21 10:19:44;;;;;;;;;;;;;;;21.62;31.91;97156.25;4975086;28;970;-78
2022/06/21 10:22:18;;;;;;;;;;;;;;;21.58;31.92;97161.28;4974967;28;963;-77
2022/06/21 10:24:51;;;;;;;;;;;;;;;21.64;31.78;97153.75;4974311;28;992;-78
2022/06/21 10:27:29;;;;;;;;;;;;;;;21.70;31.62;97151.88;4974830;28;1031;-78
2022/06/21 10:30:01;;;;;;;;;;;;;;;21.56;32.08;97152.47;4958703;28;1234;-78
2022/06/21 10:32:35;;;;;;;;;;;;;;;21.76;31.38;97160.53;4981906;28;972;-78
2022/06/21 10:35:12;;;;;;;;;;;;;;;21.70;31.47;97151.09;4994322;28;1133;-78
2022/06/21 10:37:43;;;;;;;;;;;;;;;21.59;31.79;97145.88;4978091;28;1968;-77
2022/06/21 10:40:13;;;;;;;;;;;;;;;21.75;31.47;97151.28;4994045;28;927;-78
2022/06/21 10:42:47;;;;;;;;;;;;;;;21.82;31.62;97147.38;4985549;28;986;-78
2022/06/21 10:45:35;;;;;;;;;;;;;;;21.72;31.51;97137.28;5016012;28;1074;-78
2022/06/21 10:48:00;;;;;;;;;;;;;;;21.68;31.58;97134.59;5014856;28;1004;-77
2022/06/21 10:50:26;;;;;;;;;;;;;;;21.64;31.66;97125.44;5015783;28;1074;-78
2022/06/21 10:53:10;;;;;;;;;;;;;;;21.74;31.40;97124.22;5016089;28;889;-78
2022/06/21 10:55:48;;;;;;;;;;;;;;;21.64;31.81;97124.66;5015697;28;936;-77
2022/06/21 10:58:16;;;;;;;;;;;;;;;21.48;32.26;97122.88;5016115;28;1922;-78
2022/06/21 11:01:17;;;;;;;;;;;;;;;21.66;32.00;97124.97;5015716;28;915;-78
2022/06/21 11:03:42;;;;;;;;;;;;;;;21.62;31.91;97116.63;4955133;29;1008;-77
2022/06/21 11:06:17;;;;;;;;;;;;;;;21.63;31.83;97123.88;4955159;29;1039;-78
2022/06/21 11:08:51;;;;;;;;;;;;;;;21.79;31.65;97126.44;4955229;29;1033;-78
2022/06/21 11:11:19;;;;;;;;;;;;;;;21.72;31.87;97115.41;4955377;29;949;-77
2022/06/21 11:13:51;;;;;;;;;;;;;;;21.75;31.72;97120.13;4939333;29;1003;-78
2022/06/21 11:16:29;;;;;;;;;;;;;;;21.53;32.10;97120.22;4955177;29;1977;-77
2022/06/21 11:18:58;;;;;;;;;;;;;;;21.73;31.81;97108.50;4939523;29;1027;-78
2022/06/21 11:21:42;;;;;;;;;;;;;;;21.78;32.01;97110.72;4939274;29;992;-78
2022/06/21 11:24:16;;;;;;;;;;;;;;;21.71;32.16;97105.34;4954901;29;1005;-78
2022/06/21 11:26:44;;;;;;;;;;;;;;;21.76;32.10;97098.25;4939013;29;942;-78
2022/06/21 11:29:13;;;;;;;;;;;;;;;21.75;31.96;97108.78;4955275;29;972;-78
2022/06/21 11:32:05;;;;;;;;;;;;;;;21.84;31.80;97099.53;4955361;29;1047;-78
2022/06/21 11:34:56;;;;;;;;;;;;;;;21.98;31.56;97084.78;4897711;29;1072;-77
2022/06/21 11:37:25;;;;;;;;;;;;;;;21.83;31.92;97081.78;4826933;29;1981;-77
2022/06/21 11:40:10;;;;;;;;;;;;;;;21.93;31.83;97078.97;4854905;29;994;-78
2022/06/21 11:42:38;;;;;;;;;;;;;;;21.83;32.01;97081.78;4811971;29;1800;-78
2022/06/21 11:45:22;;;;;;;;;;;;;;;21.88;32.01;97076.75;4827048;29;1057;-78
2022/06/21 11:47:48;;;;;;;;;;;;;;;21.86;32.32;97074.38;4812068;29;975;-78
2022/06/21 11:50:20;;;;;;;;;;;;;;;21.90;32.20;97074.22;4827159;29;965;-78
2022/06/21 11:52:49;;;;;;;;;;;;;;;21.79;32.50;97069.81;4811558;29;1013;-78
2022/06/21 11:55:20;;;;;;;;;;;;;;;21.57;32.69;97072.75;4811874;29;1310;-78
2022/06/21 11:57:49;;;;;;;;;;;;;;;21.84;32.09;97060.69;4826705;29;1974;-78
2022/06/21 12:00:18;;;;;;;;;;;;;;;21.81;32.31;97066.50;4826985;29;1012;-78
2022/06/21 12:02:46;;;;;;;;;;;;;;;21.78;32.15;97059.72;4826781;29;1023;-78
2022/06/21 12:05:30;;;;;;;;;;;;;;;21.77;32.25;97049.66;4811484;29;972;-78
2022/06/21 12:08:16;;;;;;;;;;;;;;;21.76;32.24;97048.09;4811300;29;998;-78
2022/06/21 12:10:49;;;;;;;;;;;;;;;21.69;32.39;97054.03;4844601;29;1139;-78
2022/06/21 12:13:20;;;;;;;;;;;;;;;21.78;32.45;97051.25;4887539;29;1021;-77
2022/06/21 12:15:50;;;;;;;;;;;;;;;21.87;32.39;97049.69;4903871;29;991;-79
2022/06/21 12:18:22;;;;;;;;;;;;;;;21.81;32.52;97049.50;4900286;29;1984;-79
2022/06/21 12:20:54;;;;;;;;;;;;;;;21.83;32.48;97044.16;4935798;29;1109;-78
2022/06/21 12:23:20;;;;;;;;;;;;;;;21.93;32.16;97027.97;4938416;29;925;-78
2022/06/21 12:25:46;;;;;;;;;;;;;;;21.92;32.50;97032.06;4938274;29;1088;-78
2022/06/21 12:28:12;;;;;;;;;;;;;;;21.99;32.30;97026.88;4938528;29;979;-78
2022/06/21 12:30:39;;;;;;;;;;;;;;;22.05;32.29;97029.88;4938164;29;976;-78
2022/06/21 12:33:05;;;;;;;;;;;;;;;21.97;32.52;97028.63;4938222;29;931;-78
2022/06/21 12:35:36;;;;;;;;;;;;;;;21.82;32.97;97026.41;4937841;29;1188;-78
2022/06/21 12:38:01;;;;;;;;;;;;;;;22.18;32.25;97033.38;4938355;29;1911;-78
2022/06/21 12:40:29;;;;;;;;;;;;;;;22.09;32.73;97022.78;4918690;29;916;-78
2022/06/21 12:43:14;;;;;;;;;;;;;;;22.13;32.50;97025.50;4918730;29;1089;-78
2022/06/21 12:45:46;;;;;;;;;;;;;;;21.98;33.18;97024.53;4918921;29;1079;-77
2022/06/21 12:48:11;;;;;;;;;;;;;;;22.05;32.96;97024.19;4902143;29;993;-78
2022/06/21 12:50:44;;;;;;;;;;;;;;;22.04;32.95;97022.63;4919030;29;992;-78
2022/06/21 12:53:24;;;;;;;;;;;;;;;22.05;32.68;97015.69;4918662;29;1038;-78
2022/06/21 12:56:08;;;;;;;;;;;;;;;21.88;33.07;97011.63;4951053;28;1044;-78
2022/06/21 12:58:52;;;;;;;;;;;;;;;21.95;32.99;97002.78;4960134;28;1005;-78
2022/06/21 13:01:19;;;;;;;;;;;;;;;21.95;32.78;97002.78;4937474;29;1021;-78
2022/06/21 13:04:03;;;;;;;;;;;;;;;22.03;32.76;97009.72;4918609;29;1075;-79
2022/06/21 13:06:35;;;;;;;;;;;;;;;22.08;32.65;97006.28;4918630;29;933;-78
2022/06/21 13:09:16;;;;;;;;;;;;;;;22.03;32.76;97007.69;4918614;29;1007;-78
2022/06/21 13:11:42;;;;;;;;;;;;;;;21.98;32.97;97008.31;4902593;29;993;-78
2022/06/21 13:14:07;;;;;;;;;;;;;;;22.19;32.30;97006.59;4918330;29;1016;-78
2022/06/21 13:16:49;;;;;;;;;;;;;;;22.01;32.88;97000.91;4918266;29;1972;-78
2022/06/21 13:19:27;;;;;;;;;;;;;;;21.96;32.97;97001.53;4918207;29;963;-78
2022/06/21 13:22:05;;;;;;;;;;;;;;;22.10;32.49;97006.56;4918240;29;1067;-78
2022/06/21 13:24:49;;;;;;;;;;;;;;;21.98;32.79;97001.88;4899128;29;1041;-78
2022/06/21 13:27:20;;;;;;;;;;;;;;;22.10;33.01;97010.22;4898899;29;1000;-78
2022/06/21 13:29:57;;;;;;;;;;;;;;;22.05;33.01;97018.53;4899082;29;975;-78
2022/06/21 13:32:23;;;;;;;;;;;;;;;22.00;33.02;97010.66;4898992;29;1069;-78
2022/06/21 13:34:52;;;;;;;;;;;;;;;21.99;33.24;97009.88;4824964;29;1047;-78
2022/06/21 13:37:18;;;;;;;;;;;;;;;22.14;32.95;97010.06;4840171;29;1905;-78
2022/06/21 13:39:46;;;;;;;;;;;;;;;22.18;32.93;97007.88;4861693;29;978;-78